Time;durP1;ratioP1;P1;durP2;ratioP2;P2;SDS_P1;SDS_P2;PMS_P1;PMS_P2;Temp;Humidity;BMP_temperature;BMP_pressure;BME280_temperature;BME280_humidity;BME280_pressure;Samples;Min_cycle;Max_cycle;Signal;HPM_P1;HPM_P2
2023/06/23 00:02:20;;;;;;;6.57;5.90;;;;;;;18.10;100.00;99925.41;5017285;28;20689;-66
2023/06/23 00:04:45;;;;;;;6.67;6.07;;;;;;;18.15;100.00;99925.84;5010842;28;20179;-67
2023/06/23 00:07:10;;;;;;;6.97;6.27;;;;;;;18.22;100.00;99911.28;5012750;28;20189;-66
2023/06/23 00:09:37;;;;;;;6.70;6.10;;;;;;;18.23;100.00;99915.53;5011798;28;20248;-67
2023/06/23 00:12:07;;;;;;;6.23;5.63;;;;;;;18.21;100.00;99914.88;5011997;28;20225;-66
2023/06/23 00:14:33;;;;;;;7.00;6.07;;;;;;;18.29;100.00;99922.78;5018403;28;20210;-66
2023/06/23 00:16:58;;;;;;;6.27;5.70;;;;;;;18.31;100.00;99927.88;5031358;28;20186;-65
2023/06/23 00:19:23;;;;;;;6.70;6.13;;;;;;;18.33;100.00;99931.16;5014776;28;20836;-66
2023/06/23 00:21:48;;;;;;;6.30;5.80;;;;;;;18.35;100.00;99930.06;5009910;28;20226;-66
2023/06/23 00:24:14;;;;;;;6.60;6.00;;;;;;;18.30;100.00;99940.06;5017567;28;20186;-66
2023/06/23 00:26:39;;;;;;;8.60;6.77;;;;;;;18.27;100.00;99934.31;5024745;28;20215;-66
2023/06/23 00:29:05;;;;;;;6.43;5.83;;;;;;;18.30;100.00;99940.06;5027144;28;20209;-66
2023/06/23 00:31:30;;;;;;;6.80;6.30;;;;;;;18.37;100.00;99945.56;5026028;28;20271;-66
2023/06/23 00:33:55;;;;;;;6.77;6.13;;;;;;;18.40;100.00;99950.47;5032468;28;20633;-66
2023/06/23 00:36:20;;;;;;;6.93;6.23;;;;;;;18.37;100.00;99962.00;5023846;28;20177;-67
2023/06/23 00:38:46;;;;;;;6.70;6.10;;;;;;;18.23;100.00;99962.41;5019966;28;20263;-66
2023/06/23 00:41:11;;;;;;;7.47;5.77;;;;;;;18.26;100.00;99959.53;5006850;28;20534;-66
2023/06/23 00:43:37;;;;;;;7.17;6.00;;;;;;;18.16;100.00;99964.72;5034332;28;20186;-66
2023/06/23 00:46:15;;;;;;;6.80;5.80;;;;;;;18.20;100.00;99965.28;5024687;28;20175;-66
2023/06/23 00:48:40;;;;;;;6.57;6.07;;;;;;;18.17;100.00;99968.16;5019685;28;20177;-67
2023/06/23 00:51:05;;;;;;;6.53;5.93;;;;;;;18.17;100.00;99981.16;5022049;28;20225;-67
2023/06/23 00:53:31;;;;;;;6.80;6.20;;;;;;;18.15;100.00;99980.50;5035239;28;20178;-66
2023/06/23 00:55:56;;;;;;;6.57;6.00;;;;;;;18.16;100.00;99990.75;5018374;28;20210;-65
2023/06/23 00:58:21;;;;;;;6.33;5.73;;;;;;;18.24;100.00;99997.88;5013747;28;20362;-67
2023/06/23 01:00:48;;;;;;;7.83;6.03;;;;;;;18.25;100.00;99993.53;5022830;28;20217;-66
2023/06/23 01:03:14;;;;;;;7.40;6.60;;;;;;;18.23;100.00;99985.81;5011936;28;20246;-66
2023/06/23 01:05:40;;;;;;;6.33;5.73;;;;;;;18.32;100.00;99973.78;5013224;28;20190;-66
2023/06/23 01:08:30;;;;;;;6.57;6.07;;;;;;;18.30;100.00;99983.53;5031521;28;20174;-66
2023/06/23 01:11:03;;;;;;;6.80;5.90;;;;;;;18.28;100.00;99973.22;5028229;28;20220;-66
2023/06/23 01:13:37;;;;;;;5.90;5.33;;;;;;;18.26;100.00;99984.72;5036335;28;20261;-66
2023/06/23 01:16:09;;;;;;;8.53;6.43;;;;;;;18.19;100.00;99989.66;5009974;28;20222;-66
2023/06/23 01:18:44;;;;;;;6.93;6.30;;;;;;;18.28;100.00;99999.25;5011302;28;20270;-66
2023/06/23 01:21:15;;;;;;;6.20;5.70;;;;;;;18.28;100.00;100004.47;5010298;28;20235;-65
2023/06/23 01:24:05;;;;;;;13.43;6.47;;;;;;;18.31;100.00;100006.81;5017680;28;20183;-65
2023/06/23 01:26:55;;;;;;;7.07;6.30;;;;;;;18.31;100.00;100006.00;5011266;28;20233;-66
2023/06/23 01:29:28;;;;;;;7.17;6.00;;;;;;;18.32;100.00;99998.03;5010699;28;20256;-66
2023/06/23 01:32:27;;;;;;;7.27;6.67;;;;;;;18.39;100.00;100016.53;5015537;28;20697;-66
2023/06/23 01:34:58;;;;;;;6.70;6.20;;;;;;;18.49;100.00;100019.16;5011804;28;20202;-66
2023/06/23 01:37:29;;;;;;;7.47;6.67;;;;;;;18.50;100.00;100021.59;5015459;28;20186;-66
2023/06/23 01:40:06;;;;;;;8.07;6.23;;;;;;;18.65;100.00;100035.03;5034169;28;20642;-66
2023/06/23 01:42:34;;;;;;;6.90;6.23;;;;;;;18.66;100.00;100041.91;4995237;28;20667;-67
2023/06/23 01:45:03;;;;;;;7.73;6.97;;;;;;;18.63;100.00;100041.34;5034709;28;20178;-65
2023/06/23 01:47:32;;;;;;;7.00;6.40;;;;;;;18.67;100.00;100051.38;5033238;28;20273;-65
2023/06/23 01:50:01;;;;;;;7.03;6.30;;;;;;;18.70;100.00;100045.88;5034855;28;20224;-66
2023/06/23 01:52:29;;;;;;;7.33;6.63;;;;;;;18.57;100.00;100044.50;5037733;28;20234;-65
2023/06/23 01:54:56;;;;;;;6.70;6.00;;;;;;;18.54;100.00;100050.81;5024271;28;20276;-65
2023/06/23 01:57:22;;;;;;;6.57;5.97;;;;;;;18.62;100.00;100050.13;5008129;28;20218;-65
2023/06/23 01:59:49;;;;;;;9.47;6.37;;;;;;;18.50;100.00;100055.47;5033163;28;20709;-65
2023/06/23 02:02:16;;;;;;;7.23;6.63;;;;;;;18.51;100.00;100064.94;5024596;28;20229;-65
2023/06/23 02:04:44;;;;;;;7.00;6.40;;;;;;;18.49;100.00;100066.88;5034621;28;20178;-66
2023/06/23 02:07:11;;;;;;;6.03;5.43;;;;;;;18.45;100.00;100072.47;5034265;28;20190;-64
2023/06/23 02:09:37;;;;;;;6.90;6.23;;;;;;;18.45;100.00;100083.69;5034384;28;20185;-65
2023/06/23 02:12:06;;;;;;;5.90;5.40;;;;;;;18.47;100.00;100081.78;5036143;28;20230;-65
2023/06/23 02:14:34;;;;;;;6.40;5.80;;;;;;;18.43;100.00;100077.81;5016361;28;20202;-66
2023/06/23 02:17:00;;;;;;;9.53;6.20;;;;;;;18.48;100.00;100069.59;5017639;28;20218;-65
2023/06/23 02:19:27;;;;;;;7.30;6.70;;;;;;;18.40;100.00;100075.47;5014794;28;20190;-66
2023/06/23 02:21:53;;;;;;;6.90;6.30;;;;;;;18.34;100.00;100076.00;5018534;28;20214;-66
2023/06/23 02:24:20;;;;;;;6.43;5.83;;;;;;;18.44;100.00;100092.47;5015809;28;20199;-65
2023/06/23 02:26:47;;;;;;;6.17;5.67;;;;;;;18.51;100.00;100092.78;5014366;28;20694;-65
2023/06/23 02:29:14;;;;;;;10.17;6.30;;;;;;;18.54;100.00;100092.47;5014322;28;20211;-65
2023/06/23 02:31:40;;;;;;;7.17;6.50;;;;;;;18.41;100.00;100084.94;5006587;28;20222;-65
2023/06/23 02:34:05;;;;;;;7.60;6.97;;;;;;;18.39;100.00;100089.44;5017131;28;20249;-66
2023/06/23 02:36:37;;;;;;;7.10;6.50;;;;;;;18.37;100.00;100091.38;5014289;28;20189;-64
2023/06/23 02:39:05;;;;;;;8.43;7.07;;;;;;;18.34;100.00;100100.25;5019063;28;20184;-65
2023/06/23 02:41:34;;;;;;;7.93;7.20;;;;;;;18.33;100.00;100098.63;5015360;28;20681;-65
2023/06/23 02:44:03;;;;;;;7.40;6.63;;;;;;;18.30;100.00;100105.88;5017818;28;20276;-66
2023/06/23 02:46:35;;;;;;;6.73;6.10;;;;;;;18.29;100.00;100106.84;5000488;28;20290;-66
2023/06/23 02:49:05;;;;;;;7.13;6.43;;;;;;;18.34;100.00;100122.88;5013031;28;20529;-66
2023/06/23 02:51:31;;;;;;;7.17;6.47;;;;;;;18.32;100.00;100132.59;5015098;28;20649;-66
2023/06/23 02:54:04;;;;;;;8.00;6.80;;;;;;;18.34;100.00;100134.09;5017730;28;20187;-65
2023/06/23 02:56:30;;;;;;;6.67;6.13;;;;;;;18.41;100.00;100139.63;5013784;28;20190;-65
2023/06/23 02:59:02;;;;;;;7.03;6.43;;;;;;;18.49;100.00;100152.81;5012380;28;20185;-65
2023/06/23 03:01:31;;;;;;;6.83;6.33;;;;;;;18.42;100.00;100153.47;4984836;28;20223;-65
2023/06/23 03:03:56;;;;;;;7.63;6.50;;;;;;;18.40;100.00;100151.00;5013090;28;20190;-65
2023/06/23 03:06:23;;;;;;;6.40;5.63;;;;;;;18.43;100.00;100149.91;5011580;28;20179;-64
2023/06/23 03:08:49;;;;;;;7.07;6.37;;;;;;;18.46;100.00;100166.09;5014087;28;20183;-65
2023/06/23 03:11:16;;;;;;;6.67;6.07;;;;;;;18.45;100.00;100167.03;5012747;28;20230;-65
2023/06/23 03:13:43;;;;;;;8.63;6.03;;;;;;;18.46;100.00;100166.09;5010409;28;20174;-65
2023/06/23 03:16:19;;;;;;;6.30;5.80;;;;;;;18.45;100.00;100164.44;5005385;28;20238;-65
2023/06/23 03:18:53;;;;;;;7.13;6.53;;;;;;;18.37;100.00;100165.09;5019145;28;20186;-66
2023/06/23 03:21:20;;;;;;;7.73;7.03;;;;;;;18.33;100.00;100150.72;5013656;28;20230;-66
2023/06/23 03:23:49;;;;;;;9.80;6.80;;;;;;;18.28;100.00;100158.06;5018894;28;20182;-65
2023/06/23 03:26:19;;;;;;;7.70;7.00;;;;;;;18.21;100.00;100159.59;5012502;28;20741;-65
2023/06/23 03:28:48;;;;;;;7.87;7.10;;;;;;;18.19;100.00;100159.69;5020663;28;20182;-65
2023/06/23 03:31:15;;;;;;;10.70;7.83;;;;;;;18.26;100.00;100156.56;4997179;28;20225;-65
2023/06/23 03:33:44;;;;;;;7.90;7.20;;;;;;;18.10;100.00;100163.09;5020169;28;20175;-65
2023/06/23 03:36:16;;;;;;;8.90;8.00;;;;;;;18.11;100.00;100161.31;5012869;28;20539;-65
2023/06/23 03:38:46;;;;;;;8.23;7.37;;;;;;;18.11;100.00;100169.13;5012251;28;20179;-65
2023/06/23 03:41:12;;;;;;;8.37;7.57;;;;;;;18.10;100.00;100167.47;5011768;28;20803;-65
2023/06/23 03:43:57;;;;;;;8.60;7.57;;;;;;;18.02;100.00;100178.53;5019668;28;20325;-65
2023/06/23 03:46:40;;;;;;;7.77;7.00;;;;;;;18.11;100.00;100189.94;5012835;28;20704;-65
2023/06/23 03:49:09;;;;;;;9.40;8.50;;;;;;;17.96;100.00;100199.88;5013207;28;20179;-65
2023/06/23 03:51:36;;;;;;;11.37;8.70;;;;;;;17.93;100.00;100200.13;5014750;28;20234;-65
2023/06/23 03:54:02;;;;;;;8.73;8.00;;;;;;;17.94;100.00;100197.41;5016412;28;20217;-66
2023/06/23 03:56:33;;;;;;;10.00;8.77;;;;;;;17.94;100.00;100204.38;5012794;28;20214;-65
2023/06/23 03:59:02;;;;;;;9.30;7.73;;;;;;;17.95;100.00;100203.41;5024223;28;20186;-65
2023/06/23 04:01:29;;;;;;;10.57;8.37;;;;;;;18.01;100.00;100206.34;5013366;28;20230;-65
2023/06/23 04:03:56;;;;;;;11.17;8.20;;;;;;;17.91;100.00;100208.88;5014163;28;20194;-65
2023/06/23 04:06:24;;;;;;;7.80;6.57;;;;;;;17.88;100.00;100216.09;5031128;28;20170;-66
2023/06/23 04:08:53;;;;;;;8.63;7.73;;;;;;;17.91;100.00;100206.25;5018443;28;20183;-66
2023/06/23 04:11:21;;;;;;;9.07;7.40;;;;;;;17.95;100.00;100206.03;5031791;28;20235;-66
2023/06/23 04:13:51;;;;;;;7.70;6.93;;;;;;;17.96;100.00;100211.13;5036795;28;20296;-66
2023/06/23 04:16:17;;;;;;;6.13;5.63;;;;;;;17.96;100.00;100213.72;5031234;28;20576;-65
2023/06/23 04:18:44;;;;;;;7.90;6.67;;;;;;;17.99;100.00;100210.84;5030139;28;20583;-65
2023/06/23 04:21:13;;;;;;;7.13;6.53;;;;;;;17.89;100.00;100215.16;5030227;28;20225;-65
2023/06/23 04:23:41;;;;;;;7.00;6.40;;;;;;;17.68;100.00;100226.38;5036987;28;20269;-64
2023/06/23 04:26:08;;;;;;;6.60;5.97;;;;;;;17.67;100.00;100232.53;5030867;28;20230;-65
2023/06/23 04:28:35;;;;;;;8.70;5.90;;;;;;;17.71;100.00;100226.16;5030696;28;20225;-65
2023/06/23 04:31:06;;;;;;;6.10;5.50;;;;;;;17.69;100.00;100261.03;5028176;28;20226;-66
2023/06/23 04:33:31;;;;;;;6.33;5.73;;;;;;;17.75;100.00;100269.16;5021643;28;20293;-65
2023/06/23 04:36:01;;;;;;;5.80;5.03;;;;;;;17.75;100.00;100260.53;5029355;28;20649;-66
2023/06/23 04:38:32;;;;;;;6.17;4.60;;;;;;;17.72;100.00;100272.03;5014776;28;20181;-66
2023/06/23 04:41:03;;;;;;;5.20;4.70;;;;;;;17.98;100.00;100282.06;5026503;28;20229;-63
2023/06/23 04:43:37;;;;;;;5.10;4.70;;;;;;;18.21;100.00;100282.75;5019407;28;20525;-64
2023/06/23 04:46:16;;;;;;;9.43;4.40;;;;;;;18.36;100.00;100280.63;5005878;28;20244;-64
2023/06/23 04:48:52;;;;;;;7.10;5.27;;;;;;;18.37;100.00;100295.31;5007529;28;20529;-63
2023/06/23 04:51:21;;;;;;;5.43;5.03;;;;;;;18.39;100.00;100283.00;5005301;28;20755;-64
2023/06/23 04:53:56;;;;;;;5.03;4.60;;;;;;;18.44;100.00;100293.00;4962243;28;20624;-63
2023/06/23 04:56:25;;;;;;;5.20;4.80;;;;;;;18.48;100.00;100297.03;4989237;28;20262;-63
2023/06/23 04:58:54;;;;;;;5.90;4.57;;;;;;;18.58;100.00;100294.47;4976259;28;20180;-63
2023/06/23 05:01:20;;;;;;;5.77;4.50;;;;;;;18.55;100.00;100299.91;4976946;28;20757;-64
2023/06/23 05:03:51;;;;;;;5.40;4.80;;;;;;;18.69;100.00;100320.41;5005174;28;20175;-65
2023/06/23 05:06:18;;;;;;;5.80;4.67;;;;;;;18.81;100.00;100320.31;4998917;28;20296;-64
2023/06/23 05:08:46;;;;;;;4.90;4.50;;;;;;;18.75;100.00;100315.63;5004073;28;20640;-63
2023/06/23 05:11:12;;;;;;;5.10;4.70;;;;;;;18.81;100.00;100315.09;5006903;28;20221;-66
2023/06/23 05:13:39;;;;;;;6.17;4.13;;;;;;;18.93;100.00;100319.28;5018748;28;20177;-63
2023/06/23 05:16:10;;;;;;;5.23;4.73;;;;;;;19.05;100.00;100322.59;5005379;28;20210;-63
2023/06/23 05:18:37;;;;;;;5.47;4.97;;;;;;;19.21;100.00;100329.09;5011439;28;20182;-62
2023/06/23 05:21:04;;;;;;;5.43;4.53;;;;;;;19.31;100.00;100332.53;5004648;28;20288;-63
2023/06/23 05:23:35;;;;;;;6.37;5.07;;;;;;;19.56;100.00;100346.03;5022772;28;20259;-63
2023/06/23 05:26:03;;;;;;;6.17;5.10;;;;;;;19.52;100.00;100348.91;5014593;28;20261;-63
2023/06/23 05:28:32;;;;;;;6.60;5.10;;;;;;;19.45;100.00;100346.97;5014658;28;20701;-62
2023/06/23 05:31:00;;;;;;;5.30;4.80;;;;;;;19.46;100.00;100346.84;5006896;28;20310;-62
2023/06/23 05:33:27;;;;;;;5.87;5.17;;;;;;;19.53;100.00;100365.38;5003863;28;20187;-64
2023/06/23 05:35:54;;;;;;;6.50;5.27;;;;;;;19.66;100.00;100362.53;4995267;28;20234;-63
2023/06/23 05:38:22;;;;;;;5.80;5.20;;;;;;;19.88;100.00;100358.03;4995842;28;20187;-63
2023/06/23 05:40:47;;;;;;;6.10;5.13;;;;;;;19.61;100.00;100368.16;4991827;28;20666;-62
2023/06/23 05:43:13;;;;;;;6.43;5.13;;;;;;;19.77;100.00;100380.66;5005300;28;20183;-63
2023/06/23 05:45:38;;;;;;;6.70;5.90;;;;;;;19.59;100.00;100375.28;4995731;28;20190;-62
2023/06/23 05:48:22;;;;;;;6.63;5.73;;;;;;;19.37;100.00;100383.34;4995850;28;20635;-63
2023/06/23 05:50:50;;;;;;;6.27;5.13;;;;;;;19.76;100.00;100375.56;4980553;28;20234;-63
2023/06/23 05:53:20;;;;;;;6.67;5.60;;;;;;;20.12;100.00;100389.75;5004290;28;20246;-63
2023/06/23 05:56:02;;;;;;;6.30;5.63;;;;;;;20.19;100.00;100386.59;4995243;28;20213;-63
2023/06/23 05:58:32;;;;;;;6.50;5.90;;;;;;;20.11;100.00;100382.88;4995147;28;20262;-64
2023/06/23 06:01:02;;;;;;;6.10;5.53;;;;;;;20.29;100.00;100396.06;4992539;28;20255;-64
2023/06/23 06:03:35;;;;;;;6.40;5.53;;;;;;;20.19;100.00;100397.03;4994643;28;20259;-64
2023/06/23 06:06:03;;;;;;;7.50;6.50;;;;;;;19.86;100.00;100401.69;4995426;28;20713;-63
2023/06/23 06:08:29;;;;;;;6.17;5.57;;;;;;;19.93;100.00;100416.69;4994798;28;20611;-63
2023/06/23 06:10:57;;;;;;;6.43;5.60;;;;;;;19.96;100.00;100421.63;4992235;28;20258;-64
2023/06/23 06:13:24;;;;;;;6.47;5.77;;;;;;;20.17;100.00;100420.69;5003526;28;20175;-63
2023/06/23 06:15:51;;;;;;;9.27;5.63;;;;;;;20.50;100.00;100422.97;4994435;28;20238;-63
2023/06/23 06:18:19;;;;;;;6.97;5.87;;;;;;;20.45;100.00;100424.22;4982259;28;20180;-64
2023/06/23 06:20:46;;;;;;;5.23;4.83;;;;;;;20.48;100.00;100426.53;4990284;28;20237;-65
2023/06/23 06:23:14;;;;;;;6.30;5.70;;;;;;;20.62;100.00;100429.69;5005398;28;20198;-63
2023/06/23 06:25:41;;;;;;;5.83;5.43;;;;;;;21.19;100.00;100436.69;4995218;28;20219;-65
2023/06/23 06:28:10;;;;;;;7.40;5.47;;;;;;;21.44;100.00;100433.38;4995607;28;20179;-63
2023/06/23 06:30:39;;;;;;;6.37;5.77;;;;;;;21.72;100.00;100437.81;4988960;28;20238;-64
2023/06/23 06:33:06;;;;;;;6.13;5.20;;;;;;;22.16;100.00;100437.03;4999755;28;20215;-63
2023/06/23 06:35:33;;;;;;;5.33;4.93;;;;;;;21.93;100.00;100450.59;4994028;28;20270;-63
2023/06/23 06:37:59;;;;;;;6.40;4.70;;;;;;;22.77;100.00;100447.66;4993100;28;20323;-63
2023/06/23 06:40:26;;;;;;;7.67;5.33;;;;;;;23.15;100.00;100440.31;4987163;28;20290;-62
2023/06/23 06:42:52;;;;;;;7.07;4.53;;;;;;;23.79;95.77;100445.94;5014791;28;20179;-63
2023/06/23 06:45:17;;;;;;;5.03;4.53;;;;;;;24.43;90.12;100453.19;5003550;28;20657;-63
2023/06/23 06:47:44;;;;;;;8.70;5.20;;;;;;;24.35;89.51;100445.34;4996303;28;20183;-65
2023/06/23 06:50:13;;;;;;;5.83;4.77;;;;;;;24.33;88.92;100449.94;4986717;28;20328;-67
2023/06/23 06:52:40;;;;;;;5.20;4.68;;;;;;;23.91;92.91;100464.00;4999308;28;20206;-66
2023/06/23 06:55:09;;;;;;;5.43;4.93;;;;;;;23.93;91.79;100457.63;5007532;28;20198;-67
2023/06/23 06:57:35;;;;;;;5.70;5.10;;;;;;;24.09;92.16;100456.84;4997534;28;20179;-68
2023/06/23 07:00:03;;;;;;;9.03;5.23;;;;;;;24.15;88.97;100471.09;5003022;28;20179;-68
2023/06/23 07:02:30;;;;;;;5.30;4.90;;;;;;;24.44;87.56;100488.22;4976880;28;20235;-66
2023/06/23 07:04:56;;;;;;;6.97;5.20;;;;;;;23.87;87.34;100460.06;4997343;28;20198;-67
2023/06/23 07:07:21;;;;;;;5.57;5.07;;;;;;;24.14;90.25;100486.06;4993250;28;20639;-66
2023/06/23 07:09:46;;;;;;;5.77;5.27;;;;;;;24.01;91.06;100481.31;4995737;28;20624;-66
2023/06/23 07:12:12;;;;;;;5.60;5.00;;;;;;;25.30;84.04;100492.00;4998510;28;20225;-68
2023/06/23 07:14:37;;;;;;;6.20;5.55;;;;;;;25.57;79.58;100497.00;4993307;28;20210;-67
2023/06/23 07:17:03;;;;;;;7.60;5.07;;;;;;;25.59;79.01;100503.75;4998264;28;20230;-66
2023/06/23 07:19:28;;;;;;;6.80;5.47;;;;;;;25.25;79.86;100501.38;5008935;28;20178;-65
2023/06/23 07:21:53;;;;;;;5.63;4.95;;;;;;;25.87;76.00;100512.97;5004401;28;20225;-67
2023/06/23 07:24:18;;;;;;;5.70;4.68;;;;;;;26.25;71.40;100505.97;5011698;28;20174;-67
2023/06/23 07:26:44;;;;;;;5.13;4.65;;;;;;;26.54;67.26;100509.66;5011894;28;20226;-67
2023/06/23 07:29:09;;;;;;;5.32;4.82;;;;;;;25.63;78.36;100517.38;5000981;28;20191;-67
2023/06/23 07:31:37;;;;;;;5.68;5.18;;;;;;;25.82;73.54;100525.84;4963390;28;20289;-66
2023/06/23 07:34:02;;;;;;;5.20;4.72;;;;;;;25.88;74.60;100538.31;4991549;28;20199;-68
2023/06/23 07:36:27;;;;;;;5.75;5.25;;;;;;;25.76;72.86;100541.34;4993028;28;20187;-66
2023/06/23 07:38:53;;;;;;;6.18;5.40;;;;;;;25.34;72.69;100545.13;4992963;28;20234;-66
2023/06/23 07:41:18;;;;;;;5.75;5.18;;;;;;;24.98;73.94;100550.78;4998692;28;20514;-65
2023/06/23 07:43:43;;;;;;;6.38;5.43;;;;;;;23.92;81.89;100550.56;5009008;28;20191;-66
2023/06/23 07:46:09;;;;;;;6.93;5.55;;;;;;;24.43;78.24;100547.03;4993825;28;20545;-66
2023/06/23 07:48:35;;;;;;;8.65;5.65;;;;;;;24.87;75.18;100546.72;4994567;28;20178;-66
2023/06/23 07:51:00;;;;;;;5.50;4.88;;;;;;;25.07;74.54;100546.38;4994144;28;20226;-68
2023/06/23 07:53:25;;;;;;;6.22;5.18;;;;;;;25.33;73.29;100551.38;5014457;28;20187;-68
2023/06/23 07:55:51;;;;;;;6.32;5.60;;;;;;;24.55;74.49;100556.25;5002199;28;20187;-67
2023/06/23 07:58:16;;;;;;;5.45;4.93;;;;;;;24.44;76.63;100557.38;4993397;28;20261;-64
2023/06/23 08:00:42;;;;;;;5.35;4.88;;;;;;;24.31;79.28;100563.13;4989177;28;20226;-67
2023/06/23 08:03:07;;;;;;;6.70;6.07;;;;;;;24.01;81.32;100557.50;5003190;28;20651;-67
2023/06/23 08:05:32;;;;;;;6.05;5.55;;;;;;;24.58;79.20;100566.41;5000637;28;20182;-67
2023/06/23 08:07:58;;;;;;;6.28;5.43;;;;;;;25.86;73.43;100572.75;4992183;28;20643;-67
2023/06/23 08:10:23;;;;;;;6.63;4.88;;;;;;;26.79;61.91;100572.00;4984737;28;20322;-69
2023/06/23 08:12:48;;;;;;;5.60;4.60;;;;;;;26.61;64.83;100572.28;5006924;28;20190;-67
2023/06/23 08:15:14;;;;;;;6.13;4.72;;;;;;;26.99;62.90;100572.28;5011665;28;20569;-67
2023/06/23 08:17:40;;;;;;;5.57;5.07;;;;;;;25.56;68.03;100590.16;5010916;28;20179;-67
2023/06/23 08:20:06;;;;;;;6.60;5.03;;;;;;;24.61;70.93;100588.94;5001625;28;20186;-68
2023/06/23 08:22:31;;;;;;;5.70;5.25;;;;;;;24.17;77.83;100609.28;5013323;28;20183;-68
2023/06/23 08:24:56;;;;;;;5.97;5.40;;;;;;;23.89;82.12;100613.91;4993037;28;20198;-67
2023/06/23 08:27:22;;;;;;;8.52;5.40;;;;;;;23.27;86.29;100612.28;4998095;28;20295;-66
2023/06/23 08:29:47;;;;;;;6.90;6.30;;;;;;;22.91;89.47;100616.75;4997681;28;20199;-66
2023/06/23 08:32:13;;;;;;;6.13;5.53;;;;;;;22.58;90.97;100619.09;4982738;28;20583;-68
2023/06/23 08:34:38;;;;;;;6.77;6.17;;;;;;;22.53;94.75;100624.78;4994749;28;20229;-67
2023/06/23 08:37:04;;;;;;;11.93;6.00;;;;;;;23.45;88.04;100621.91;4995301;28;20267;-76
2023/06/23 08:39:29;;;;;;;7.53;6.00;;;;;;;23.17;87.77;100627.28;4995118;28;20184;-68
2023/06/23 08:41:55;;;;;;;10.03;6.43;;;;;;;22.91;89.26;100635.94;4996332;28;20223;-66
2023/06/23 08:44:24;;;;;;;9.20;5.57;;;;;;;24.06;81.40;100633.19;4989368;28;20266;-69
2023/06/23 08:46:54;;;;;;;6.20;5.70;;;;;;;23.61;82.07;100635.13;4992052;28;20591;-69
2023/06/23 08:49:22;;;;;;;8.03;5.67;;;;;;;24.59;74.98;100625.13;4992447;28;20214;-66
2023/06/23 08:51:48;;;;;;;7.90;6.20;;;;;;;25.47;68.96;100631.53;4995558;28;20226;-67
2023/06/23 08:54:14;;;;;;;6.90;5.22;;;;;;;27.44;59.62;100623.34;4997149;28;20185;-67
2023/06/23 08:56:40;;;;;;;5.00;4.60;;;;;;;28.40;53.01;100624.31;5002294;28;20265;-69
2023/06/23 08:59:05;;;;;;;5.60;5.10;;;;;;;27.31;53.88;100631.06;5005794;28;20232;-68
2023/06/23 09:01:31;;;;;;;5.45;4.95;;;;;;;26.62;57.65;100637.22;5007655;28;20214;-69
2023/06/23 09:03:56;;;;;;;5.43;4.93;;;;;;;26.94;57.50;100627.44;5005426;28;20215;-67
2023/06/23 09:06:21;;;;;;;5.85;5.20;;;;;;;28.89;49.99;100647.38;4994131;28;20191;-66
2023/06/23 09:08:47;;;;;;;5.88;5.03;;;;;;;29.84;44.47;100648.78;5011535;28;20266;-67
2023/06/23 09:11:12;;;;;;;5.00;4.50;;;;;;;29.39;45.16;100657.91;5010121;28;20254;-67
2023/06/23 09:13:41;;;;;;;6.45;5.28;;;;;;;29.11;46.99;100649.97;4992958;28;20210;-68
2023/06/23 09:16:09;;;;;;;6.05;5.30;;;;;;;27.72;53.12;100666.81;4993847;28;20287;-69
2023/06/23 09:18:40;;;;;;;6.65;5.18;;;;;;;29.10;46.72;100666.84;4993397;28;20245;-68
2023/06/23 09:21:07;;;;;;;5.93;5.38;;;;;;;29.30;44.63;100675.81;4985402;28;20233;-67
2023/06/23 09:23:33;;;;;;;5.53;4.78;;;;;;;28.88;48.34;100668.75;4991990;28;20548;-68
2023/06/23 09:25:59;;;;;;;5.20;4.70;;;;;;;30.10;42.57;100664.00;4993977;28;20575;-67
2023/06/23 09:28:29;;;;;;;5.53;4.65;;;;;;;29.83;42.51;100671.81;4995641;28;20222;-68
2023/06/23 09:31:15;;;;;;;6.45;4.70;;;;;;;29.25;43.28;100666.75;4987543;28;20231;-67
2023/06/23 09:33:49;;;;;;;4.97;4.50;;;;;;;29.02;45.38;100673.13;4986214;28;20194;-68
2023/06/23 09:36:14;;;;;;;6.40;4.85;;;;;;;28.78;47.76;100666.41;4989493;28;20279;-68
2023/06/23 09:38:39;;;;;;;5.38;4.88;;;;;;;28.05;50.44;100663.81;4990901;28;20600;-68
2023/06/23 09:41:16;;;;;;;5.43;4.85;;;;;;;27.04;55.82;100659.69;4989889;28;20729;-68
2023/06/23 09:43:50;;;;;;;6.35;5.15;;;;;;;26.56;60.02;100673.06;5009090;28;20194;-68
2023/06/23 09:46:18;;;;;;;8.75;5.00;;;;;;;26.40;56.79;100669.53;5005156;28;20643;-68
2023/06/23 09:48:45;;;;;;;4.55;4.13;;;;;;;26.94;54.63;100675.81;5003002;28;20190;-68
2023/06/23 09:51:12;;;;;;;5.32;4.60;;;;;;;27.85;49.51;100682.84;4993299;28;20230;-68
2023/06/23 09:53:39;;;;;;;6.40;4.28;;;;;;;28.89;44.11;100679.13;5010352;28;20316;-68
2023/06/23 09:56:06;;;;;;;4.75;4.35;;;;;;;29.36;45.98;100678.69;5004170;28;20233;-60
2023/06/23 09:58:35;;;;;;;9.60;4.68;;;;;;;29.81;45.57;100673.84;5004929;28;20777;-61
2023/06/23 10:01:02;;;;;;;5.18;4.68;;;;;;;30.29;42.00;100681.00;5011152;28;20237;-61
2023/06/23 10:03:29;;;;;;;7.70;5.15;;;;;;;28.56;46.92;100682.25;5022147;28;20186;-60
2023/06/23 10:05:59;;;;;;;6.68;4.50;;;;;;;28.95;45.98;100669.59;5001710;28;20270;-60
2023/06/23 10:08:26;;;;;;;5.90;4.30;;;;;;;29.60;43.93;100695.97;5012583;28;20648;-59
2023/06/23 10:10:51;;;;;;;5.18;4.65;;;;;;;29.92;42.09;100689.22;5004824;28;20267;-60
2023/06/23 10:13:17;;;;;;;5.25;4.78;;;;;;;29.49;42.60;100689.38;5017834;28;20282;-60
2023/06/23 10:15:42;;;;;;;4.10;3.70;;;;;;;29.73;42.25;100680.16;5004286;28;20287;-60
2023/06/23 10:18:11;;;;;;;8.82;4.40;;;;;;;29.04;41.65;100673.75;5008986;28;20206;-59
2023/06/23 10:20:37;;;;;;;7.68;4.60;;;;;;;27.87;46.50;100688.75;5000751;28;20277;-62
2023/06/23 10:23:02;;;;;;;4.72;4.32;;;;;;;28.22;47.88;100696.13;5006506;28;20187;-61
2023/06/23 10:25:28;;;;;;;4.95;3.95;;;;;;;28.49;44.68;100679.56;5006801;28;20195;-59
2023/06/23 10:27:56;;;;;;;5.05;4.15;;;;;;;29.95;41.18;100678.22;4992590;28;20219;-60
2023/06/23 10:30:22;;;;;;;5.03;3.83;;;;;;;29.24;40.90;100704.88;4980956;28;20206;-59
2023/06/23 10:32:53;;;;;;;5.88;4.05;;;;;;;28.82;44.87;100694.94;5002910;28;20214;-58
2023/06/23 10:35:21;;;;;;;4.47;4.07;;;;;;;27.57;49.31;100695.88;5004625;28;20246;-58
2023/06/23 10:37:49;;;;;;;7.75;4.43;;;;;;;26.46;59.34;100704.09;4998576;28;20172;-58
2023/06/23 10:40:18;;;;;;;5.00;4.15;;;;;;;27.53;52.65;100692.78;4980722;28;20202;-56
2023/06/23 10:42:47;;;;;;;4.40;4.00;;;;;;;27.05;50.80;100706.22;5007384;28;20214;-58
2023/06/23 10:45:13;;;;;;;4.45;4.05;;;;;;;27.10;53.84;100714.41;4985909;28;20188;-58
2023/06/23 10:47:39;;;;;;;5.00;3.95;;;;;;;27.62;50.20;100715.44;4999239;28;20696;-59
2023/06/23 10:50:07;;;;;;;6.75;4.20;;;;;;;26.87;53.51;100722.38;4978568;28;20604;-60
2023/06/23 10:52:32;;;;;;;6.15;3.97;;;;;;;26.80;56.50;100714.31;5007062;28;20190;-58
2023/06/23 10:54:58;;;;;;;5.13;4.05;;;;;;;26.17;57.88;100714.31;4993734;28;20203;-60
2023/06/23 10:57:23;;;;;;;4.32;3.90;;;;;;;25.47;60.10;100721.06;5000979;28;20240;-60
2023/06/23 11:00:05;;;;;;;7.38;3.63;;;;;;;25.22;60.45;100730.75;4992772;28;20184;-56
2023/06/23 11:02:53;;;;;;;4.63;4.05;;;;;;;25.56;57.84;100709.50;4965008;28;20229;-56
2023/06/23 11:05:18;;;;;;;4.70;4.30;;;;;;;25.51;60.45;100711.00;4990126;28;20188;-55
2023/06/23 11:08:00;;;;;;;7.70;3.88;;;;;;;25.08;58.90;100714.63;5009479;28;20180;-56
2023/06/23 11:10:46;;;;;;;4.53;4.03;;;;;;;25.32;58.87;100717.41;4984523;28;20685;-56
2023/06/23 11:13:12;;;;;;;4.63;4.22;;;;;;;25.14;58.75;100732.41;5001661;28;20198;-56
2023/06/23 11:15:37;;;;;;;4.30;3.90;;;;;;;25.19;59.82;100713.47;4999022;28;20351;-56
2023/06/23 11:18:06;;;;;;;4.22;3.92;;;;;;;25.68;60.54;100719.72;5010110;28;20183;-56
2023/06/23 11:20:35;;;;;;;6.35;4.22;;;;;;;25.51;58.23;100722.34;4997420;28;20228;-56
2023/06/23 11:23:04;;;;;;;4.40;4.10;;;;;;;25.68;57.98;100717.91;5004876;28;20196;-55
2023/06/23 11:25:38;;;;;;;5.15;4.65;;;;;;;25.77;58.96;100726.59;5002803;28;20183;-57
2023/06/23 11:28:36;;;;;;;8.25;4.45;;;;;;;25.50;61.18;100725.16;4987542;28;20199;-57